Time;durP1;ratioP1;P1;durP2;ratioP2;P2;SDS_P1;SDS_P2;PMS_P1;PMS_P2;Temp;Humidity;BMP_temperature;BMP_pressure;BME280_temperature;BME280_humidity;BME280_pressure;Samples;Min_cycle;Max_cycle;Signal;HPM_P1;HPM_P2
2023/08/30 00:01:20;;;;;;;;;;;;;;;;;;6186120;28;19921;-73
2023/08/30 00:04:21;;;;;;;;;;;;;;;;;;6183955;28;19959;-73
2023/08/30 00:07:21;;;;;;;;;;;;;;;;;;6172754;28;20311;-73
2023/08/30 00:10:21;;;;;;;;;;;;;;;;;;6193690;28;19918;-73
2023/08/30 00:13:21;;;;;;;;;;;;;;;;;;6195800;28;19914;-73
2023/08/30 00:16:21;;;;;;;;;;;;;;;;;;6178293;28;19940;-74
2023/08/30 00:19:21;;;;;;;;;;;;;;;;;;6192415;28;19914;-74
2023/08/30 00:22:21;;;;;;;;;;;;;;;;;;6190837;28;19940;-74
2023/08/30 00:25:21;;;;;;;;;;;;;;;;;;6191915;28;19924;-72
2023/08/30 00:28:22;;;;;;;;;;;;;;;;;;6190326;28;19920;-72
2023/08/30 00:31:22;;;;;;;;;;;;;;;;;;6194117;28;19917;-72
2023/08/30 00:34:22;;;;;;;;;;;;;;;;;;6197310;28;19948;-72
2023/08/30 00:37:22;;;;;;;;;;;;;;;;;;6193897;28;20325;-72
2023/08/30 00:40:22;;;;;;;;;;;;;;;;;;6185877;28;19921;-72
2023/08/30 00:43:22;;;;;;;;;;;;;;;;;;6190683;28;20004;-72
2023/08/30 00:46:22;;;;;;;;;;;;;;;;;;6189744;28;20076;-72
2023/08/30 00:49:22;;;;;;;;;;;;;;;;;;6190399;28;20415;-73
2023/08/30 00:52:23;;;;;;;;;;;;;;;;;;6191093;28;20072;-72
2023/08/30 00:55:23;;;;;;;;;;;;;;;;;;6187726;28;20000;-72
2023/08/30 00:58:26;;;;;;;;;;;;;;;;;;6183490;28;19921;-72
2023/08/30 01:01:26;;;;;;;;;;;;;;;;;;6185670;28;19910;-71
2023/08/30 01:04:26;;;;;;;;;;;;;;;;;;6182767;28;19933;-72
2023/08/30 01:07:27;;;;;;;;;;;;;;;;;;6179840;28;19922;-72
2023/08/30 01:10:27;;;;;;;;;;;;;;;;;;6183827;28;19955;-72
2023/08/30 01:13:30;;;;;;;;;;;;;;;;;;6164767;28;19922;-72
2023/08/30 01:16:30;;;;;;;;;;;;;;;;;;6179389;28;19914;-72
2023/08/30 01:19:30;;;;;;;;;;;;;;;;;;6178160;28;20016;-72
2023/08/30 01:22:30;;;;;;;;;;;;;;;;;;6182341;28;19921;-72
2023/08/30 01:25:32;;;;;;;;;;;;;;;;;;6161813;28;20000;-72
2023/08/30 01:28:32;;;;;;;;;;;;;;;;;;6183391;28;19917;-71
2023/08/30 01:31:33;;;;;;;;;;;;;;;;;;6180717;28;19992;-72
2023/08/30 01:34:34;;;;;;;;;;;;;;;;;;6178020;28;19914;-75
2023/08/30 01:37:34;;;;;;;;;;;;;;;;;;6184426;28;19957;-72
2023/08/30 01:40:34;;;;;;;;;;;;;;;;;;6183531;28;19909;-72
2023/08/30 01:43:35;;;;;;;;;;;;;;;;;;6179137;28;20336;-72
2023/08/30 01:46:35;;;;;;;;;;;;;;;;;;6176607;28;19961;-72
2023/08/30 01:49:37;;;;;;;;;;;;;;;;;;6182261;28;20407;-74
2023/08/30 01:52:37;;;;;;;;;;;;;;;;;;6181504;28;20008;-72
2023/08/30 01:55:37;;;;;;;;;;;;;;;;;;6182883;28;19944;-73
2023/08/30 01:58:37;;;;;;;;;;;;;;;;;;6178114;28;20345;-73
2023/08/30 02:01:37;;;;;;;;;;;;;;;;;;6178885;28;19917;-72
2023/08/30 02:04:37;;;;;;;;;;;;;;;;;;6179947;28;20078;-73
2023/08/30 02:07:38;;;;;;;;;;;;;;;;;;6182051;28;19917;-70
2023/08/30 02:10:38;;;;;;;;;;;;;;;;;;6183392;28;19917;-69
2023/08/30 02:13:38;;;;;;;;;;;;;;;;;;6180772;28;19918;-69
2023/08/30 02:16:38;;;;;;;;;;;;;;;;;;6179294;28;20028;-70
2023/08/30 02:19:38;;;;;;;;;;;;;;;;;;6162027;28;20608;-71
2023/08/30 02:22:38;;;;;;;;;;;;;;;;;;6180593;28;20628;-69
2023/08/30 02:25:38;;;;;;;;;;;;;;;;;;6177903;28;19918;-69
2023/08/30 02:28:38;;;;;;;;;;;;;;;;;;6178719;28;19961;-69
2023/08/30 02:31:39;;;;;;;;;;;;;;;;;;6178810;28;19910;-68
2023/08/30 02:34:39;;;;;;;;;;;;;;;;;;6180380;28;19969;-69
2023/08/30 02:37:40;;;;;;;;;;;;;;;;;;6183958;28;20020;-68
2023/08/30 02:40:40;;;;;;;;;;;;;;;;;;6183966;28;19961;-68
2023/08/30 02:43:40;;;;;;;;;;;;;;;;;;6185888;28;19910;-68
2023/08/30 02:46:41;;;;;;;;;;;;;;;;;;6184549;28;19928;-68
2023/08/30 02:49:41;;;;;;;;;;;;;;;;;;6185319;28;20313;-69
2023/08/30 02:52:41;;;;;;;;;;;;;;;;;;6181373;28;19914;-69
2023/08/30 02:55:41;;;;;;;;;;;;;;;;;;6184977;28;19924;-69
2023/08/30 02:58:42;;;;;;;;;;;;;;;;;;6186359;28;19925;-69
2023/08/30 03:01:42;;;;;;;;;;;;;;;;;;6183895;28;20372;-69
2023/08/30 03:04:42;;;;;;;;;;;;;;;;;;6187990;28;19932;-68
2023/08/30 03:07:42;;;;;;;;;;;;;;;;;;6180726;28;19917;-68
2023/08/30 03:10:42;;;;;;;;;;;;;;;;;;6187485;28;19918;-69
2023/08/30 03:13:42;;;;;;;;;;;;;;;;;;6187583;28;20249;-69
2023/08/30 03:16:45;;;;;;;;;;;;;;;;;;6184130;28;20033;-69
2023/08/30 03:19:45;;;;;;;;;;;;;;;;;;6182916;28;19957;-69
2023/08/30 03:22:45;;;;;;;;;;;;;;;;;;6185299;28;19983;-69
2023/08/30 03:25:45;;;;;;;;;;;;;;;;;;6185714;28;20399;-69
2023/08/30 03:28:45;;;;;;;;;;;;;;;;;;6184806;28;19921;-68
2023/08/30 03:31:45;;;;;;;;;;;;;;;;;;6182535;28;19960;-68
2023/08/30 03:34:45;;;;;;;;;;;;;;;;;;6185750;28;19985;-66
2023/08/30 03:37:45;;;;;;;;;;;;;;;;;;6182023;28;19913;-66
2023/08/30 03:40:46;;;;;;;;;;;;;;;;;;6183226;28;20612;-66
2023/08/30 03:43:46;;;;;;;;;;;;;;;;;;6186841;28;20275;-66
2023/08/30 03:46:46;;;;;;;;;;;;;;;;;;6179421;28;19918;-66
2023/08/30 03:49:46;;;;;;;;;;;;;;;;;;6182225;28;19918;-66
2023/08/30 03:52:46;;;;;;;;;;;;;;;;;;6192513;28;19910;-66
2023/08/30 03:55:46;;;;;;;;;;;;;;;;;;6184399;28;19910;-66
2023/08/30 03:58:46;;;;;;;;;;;;;;;;;;6177859;28;20700;-66
2023/08/30 04:01:47;;;;;;;;;;;;;;;;;;6188884;28;20009;-66
2023/08/30 04:04:47;;;;;;;;;;;;;;;;;;6185165;28;19961;-65
2023/08/30 04:07:48;;;;;;;;;;;;;;;;;;6199296;28;19937;-66
2023/08/30 04:10:49;;;;;;;;;;;;;;;;;;6186093;28;20381;-65
2023/08/30 04:13:49;;;;;;;;;;;;;;;;;;6180613;28;20008;-66
2023/08/30 04:16:49;;;;;;;;;;;;;;;;;;6192550;28;19934;-65
2023/08/30 04:19:49;;;;;;;;;;;;;;;;;;6198040;28;20004;-65
2023/08/30 04:22:49;;;;;;;;;;;;;;;;;;6181448;28;19932;-65
2023/08/30 04:25:49;;;;;;;;;;;;;;;;;;6177187;28;19921;-65
2023/08/30 04:28:49;;;;;;;;;;;;;;;;;;6191911;28;19917;-64
2023/08/30 04:31:50;;;;;;;;;;;;;;;;;;6190373;28;19949;-64
2023/08/30 04:34:50;;;;;;;;;;;;;;;;;;6198640;28;20048;-64
2023/08/30 04:37:50;;;;;;;;;;;;;;;;;;6194184;28;19910;-64
2023/08/30 04:40:50;;;;;;;;;;;;;;;;;;6193403;28;19913;-64
2023/08/30 04:43:50;;;;;;;;;;;;;;;;;;6201943;28;19909;-67
2023/08/30 04:46:52;;;;;;;;;;;;;;;;;;6199153;28;19914;-67
2023/08/30 04:49:52;;;;;;;;;;;;;;;;;;6182848;28;19918;-68
2023/08/30 04:52:52;;;;;;;;;;;;;;;;;;6192622;28;19922;-68
2023/08/30 04:55:52;;;;;;;;;;;;;;;;;;6185140;28;19917;-67
2023/08/30 04:58:52;;;;;;;;;;;;;;;;;;6178200;28;19932;-68
2023/08/30 05:01:52;;;;;;;;;;;;;;;;;;6181085;28;20360;-73
2023/08/30 05:04:52;;;;;;;;;;;;;;;;;;6183853;28;19925;-74
2023/08/30 05:07:52;;;;;;;;;;;;;;;;;;6180067;28;19957;-73
2023/08/30 05:10:53;;;;;;;;;;;;;;;;;;6184076;28;19913;-71
2023/08/30 05:13:53;;;;;;;;;;;;;;;;;;6178808;28;19914;-72
2023/08/30 05:16:53;;;;;;;;;;;;;;;;;;6181234;28;20389;-72
2023/08/30 05:19:53;;;;;;;;;;;;;;;;;;6193764;28;19966;-72
2023/08/30 05:22:53;;;;;;;;;;;;;;;;;;6178296;28;20020;-72
2023/08/30 05:25:53;;;;;;;;;;;;;;;;;;6183273;28;19914;-72
2023/08/30 05:28:53;;;;;;;;;;;;;;;;;;6174692;28;19910;-70
2023/08/30 05:31:53;;;;;;;;;;;;;;;;;;6193827;28;19937;-70
2023/08/30 05:34:54;;;;;;;;;;;;;;;;;;6197065;28;19913;-71
2023/08/30 05:37:54;;;;;;;;;;;;;;;;;;6202221;28;19976;-71
2023/08/30 05:40:54;;;;;;;;;;;;;;;;;;6194180;28;19918;-71
2023/08/30 05:43:54;;;;;;;;;;;;;;;;;;6198449;28;20411;-72
2023/08/30 05:46:54;;;;;;;;;;;;;;;;;;6197101;28;19917;-71
2023/08/30 05:49:54;;;;;;;;;;;;;;;;;;6197313;28;19925;-72
2023/08/30 05:52:54;;;;;;;;;;;;;;;;;;6209656;28;19910;-72
2023/08/30 05:55:54;;;;;;;;;;;;;;;;;;6208129;28;19906;-71
2023/08/30 05:58:55;;;;;;;;;;;;;;;;;;6200178;28;19925;-71
2023/08/30 06:01:55;;;;;;;;;;;;;;;;;;6194429;28;19921;-72
2023/08/30 06:04:55;;;;;;;;;;;;;;;;;;6196237;28;19928;-72
2023/08/30 06:07:55;;;;;;;;;;;;;;;;;;6202323;28;19952;-72
2023/08/30 06:10:55;;;;;;;;;;;;;;;;;;6205173;28;19910;-72
2023/08/30 06:13:58;;;;;;;;;;;;;;;;;;6200637;28;19910;-72
2023/08/30 06:16:59;;;;;;;;;;;;;;;;;;6198606;28;19918;-72
2023/08/30 06:19:59;;;;;;;;;;;;;;;;;;6200586;28;19913;-72
2023/08/30 06:22:59;;;;;;;;;;;;;;;;;;6201966;28;20302;-72
2023/08/30 06:26:00;;;;;;;;;;;;;;;;;;6214033;28;19948;-71
2023/08/30 06:29:00;;;;;;;;;;;;;;;;;;6204539;28;20039;-72
2023/08/30 06:32:00;;;;;;;;;;;;;;;;;;6196742;28;19921;-71
2023/08/30 06:35:00;;;;;;;;;;;;;;;;;;6200245;28;20340;-72
2023/08/30 06:38:01;;;;;;;;;;;;;;;;;;6198456;28;19979;-72
2023/08/30 06:41:01;;;;;;;;;;;;;;;;;;6201157;28;20348;-72
2023/08/30 06:44:01;;;;;;;;;;;;;;;;;;6201224;28;20000;-72
2023/08/30 06:47:01;;;;;;;;;;;;;;;;;;6196072;28;19929;-72
2023/08/30 06:50:03;;;;;;;;;;;;;;;;;;6195854;28;19921;-71
2023/08/30 06:53:03;;;;;;;;;;;;;;;;;;6201408;28;19905;-74
2023/08/30 06:56:03;;;;;;;;;;;;;;;;;;6200741;28;19913;-73
2023/08/30 06:59:03;;;;;;;;;;;;;;;;;;6199609;28;19960;-75
2023/08/30 07:02:04;;;;;;;;;;;;;;;;;;6194203;28;20015;-73
2023/08/30 07:05:04;;;;;;;;;;;;;;;;;;6197896;28;19918;-72
2023/08/30 07:08:04;;;;;;;;;;;;;;;;;;6201799;28;19914;-72
2023/08/30 07:11:05;;;;;;;;;;;;;;;;;;6201243;28;19906;-71
2023/08/30 07:14:05;;;;;;;;;;;;;;;;;;6197156;28;19913;-72
2023/08/30 07:17:05;;;;;;;;;;;;;;;;;;6201118;28;19949;-72
2023/08/30 07:20:08;;;;;;;;;;;;;;;;;;6178360;28;19918;-72
2023/08/30 07:23:10;;;;;;;;;;;;;;;;;;6185085;28;19914;-73
2023/08/30 07:26:10;;;;;;;;;;;;;;;;;;6174886;28;20046;-72
2023/08/30 07:29:10;;;;;;;;;;;;;;;;;;5837685;28;9999671;-72
2023/08/30 07:32:10;;;;;;;;;;;;;;;;;;6197084;28;20467;-72
2023/08/30 07:35:10;;;;;;;;;;;;;;;;;;6202892;28;19914;-72
2023/08/30 07:38:11;;;;;;;;;;;;;;;;;;6185454;28;19956;-72
2023/08/30 07:41:11;;;;;;;;;;;;;;;;;;6185178;28;19914;-72
2023/08/30 07:44:11;;;;;;;;;;;;;;;;;;6157928;28;19981;-72
2023/08/30 07:47:11;;;;;;;;;;;;;;;;;;6197444;28;19917;-72
2023/08/30 07:50:12;;;;;;;;;;;;;;;;;;6220695;28;20371;-72
2023/08/30 07:53:12;;;;;;;;;;;;;;;;;;6199222;28;19917;-72
2023/08/30 07:56:12;;;;;;;;;;;;;;;;;;6197783;28;19972;-73
2023/08/30 07:59:12;;;;;;;;;;;;;;;;;;6184716;28;20015;-72
2023/08/30 08:02:12;;;;;;;;;;;;;;;;;;6182029;28;19961;-72
2023/08/30 08:05:12;;;;;;;;;;;;;;;;;;6164205;28;20671;-72
2023/08/30 08:08:14;;;;;;;;;;;;;;;;;;6163217;28;19969;-73
2023/08/30 08:11:15;;;;;;;;;;;;;;;;;;6172321;28;19910;-72
2023/08/30 08:14:15;;;;;;;;;;;;;;;;;;6174271;28;19986;-72
2023/08/30 08:17:15;;;;;;;;;;;;;;;;;;6178719;28;19920;-71
2023/08/30 08:20:15;;;;;;;;;;;;;;;;;;6196678;28;19913;-71
2023/08/30 08:23:16;;;;;;;;;;;;;;;;;;6197310;28;19906;-71
2023/08/30 08:26:16;;;;;;;;;;;;;;;;;;6180510;28;20357;-74
2023/08/30 08:29:16;;;;;;;;;;;;;;;;;;6195125;28;20356;-73
2023/08/30 08:32:16;;;;;;;;;;;;;;;;;;6180639;28;19989;-73
2023/08/30 08:35:16;;;;;;;;;;;;;;;;;;6195562;28;19913;-73
2023/08/30 08:38:16;;;;;;;;;;;;;;;;;;6196601;28;19906;-73
2023/08/30 08:41:16;;;;;;;;;;;;;;;;;;6173711;28;19957;-73
2023/08/30 08:44:19;;;;;;;;;;;;;;;;;;6172812;28;20416;-77
2023/08/30 08:47:20;;;;;;;;;;;;;;;;;;6163370;28;20404;-71
2023/08/30 08:50:20;;;;;;;;;;;;;;;;;;6169816;28;19914;-72
2023/08/30 08:53:20;;;;;;;;;;;;;;;;;;6169606;28;19914;-71
2023/08/30 08:56:20;;;;;;;;;;;;;;;;;;6194846;28;20364;-72
2023/08/30 08:59:20;;;;;;;;;;;;;;;;;;6185063;28;20220;-72
2023/08/30 09:02:20;;;;;;;;;;;;;;;;;;5803651;28;10000510;-72
2023/08/30 09:05:21;;;;;;;;;;;;;;;;;;6192009;28;19967;-72
2023/08/30 09:08:21;;;;;;;;;;;;;;;;;;6195673;28;19913;-72
2023/08/30 09:11:21;;;;;;;;;;;;;;;;;;6197358;28;20257;-72
2023/08/30 09:14:21;;;;;;;;;;;;;;;;;;6172553;28;19965;-72
2023/08/30 09:17:21;;;;;;;;;;;;;;;;;;6212141;28;19934;-72
2023/08/30 09:20:21;;;;;;;;;;;;;;;;;;6221991;28;19905;-72
2023/08/30 09:23:24;;;;;;;;;;;;;;;;;;6222272;28;19917;-72
2023/08/30 09:26:24;;;;;;;;;;;;;;;;;;6215129;28;19916;-72
2023/08/30 09:29:24;;;;;;;;;;;;;;;;;;6179662;28;20325;-72
2023/08/30 09:32:25;;;;;;;;;;;;;;;;;;6196394;28;19937;-72
2023/08/30 09:35:25;;;;;;;;;;;;;;;;;;6221865;28;20323;-72
2023/08/30 09:38:25;;;;;;;;;;;;;;;;;;6221898;28;19913;-72
2023/08/30 09:41:25;;;;;;;;;;;;;;;;;;6221125;28;19906;-72
2023/08/30 09:44:26;;;;;;;;;;;;;;;;;;6221077;28;20047;-73
2023/08/30 09:47:26;;;;;;;;;;;;;;;;;;6219933;28;20422;-73
2023/08/30 09:50:27;;;;;;;;;;;;;;;;;;6220672;28;19953;-73
2023/08/30 09:53:29;;;;;;;;;;;;;;;;;;6222260;28;20012;-73
2023/08/30 09:56:30;;;;;;;;;;;;;;;;;;6206588;28;19906;-73
2023/08/30 09:59:30;;;;;;;;;;;;;;;;;;6197196;28;19960;-74
2023/08/30 10:02:30;;;;;;;;;;;;;;;;;;6198445;28;19929;-74
2023/08/30 10:05:30;;;;;;;;;;;;;;;;;;6191238;28;19924;-74
2023/08/30 10:08:31;;;;;;;;;;;;;;;;;;6202680;28;19948;-74
2023/08/30 10:11:31;;;;;;;;;;;;;;;;;;6201651;28;20364;-74
2023/08/30 10:14:31;;;;;;;;;;;;;;;;;;6192558;28;19910;-73
2023/08/30 10:17:31;;;;;;;;;;;;;;;;;;6200610;28;19992;-73
2023/08/30 10:20:31;;;;;;;;;;;;;;;;;;6200818;28;19987;-74
2023/08/30 10:23:32;;;;;;;;;;;;;;;;;;6200806;28;19929;-74
2023/08/30 10:26:32;;;;;;;;;;;;;;;;;;6222251;28;19964;-74
2023/08/30 10:29:32;;;;;;;;;;;;;;;;;;6200487;28;19909;-73
2023/08/30 10:32:33;;;;;;;;;;;;;;;;;;6179107;28;19953;-72
2023/08/30 10:35:33;;;;;;;;;;;;;;;;;;6187787;28;20342;-71
2023/08/30 10:38:33;;;;;;;;;;;;;;;;;;6186592;28;19909;-72
2023/08/30 10:41:33;;;;;;;;;;;;;;;;;;6196338;28;19918;-75
2023/08/30 10:44:33;;;;;;;;;;;;;;;;;;6180453;28;19909;-74
2023/08/30 10:47:35;;;;;;;;;;;;;;;;;;6192663;28;20055;-74
2023/08/30 10:50:36;;;;;;;;;;;;;;;;;;6172350;28;19986;-73
2023/08/30 10:53:36;;;;;;;;;;;;;;;;;;6205640;28;20048;-72
2023/08/30 10:56:38;;;;;;;;;;;;;;;;;;6214440;28;20368;-72
2023/08/30 10:59:38;;;;;;;;;;;;;;;;;;6187685;28;19914;-72
2023/08/30 11:02:38;;;;;;;;;;;;;;;;;;5845643;28;10000148;-72
2023/08/30 11:05:38;;;;;;;;;;;;;;;;;;6191522;28;19918;-72
2023/08/30 11:08:38;;;;;;;;;;;;;;;;;;6199746;28;19910;-72
2023/08/30 11:11:38;;;;;;;;;;;;;;;;;;6216892;28;19968;-71
2023/08/30 11:14:38;;;;;;;;;;;;;;;;;;6211698;28;19921;-70
2023/08/30 11:17:39;;;;;;;;;;;;;;;;;;6183908;28;19910;-71
2023/08/30 11:20:39;;;;;;;;;;;;;;;;;;6199591;28;19917;-72
2023/08/30 11:23:39;;;;;;;;;;;;;;;;;;6217375;28;19910;-73
2023/08/30 11:26:39;;;;;;;;;;;;;;;;;;6197647;28;19913;-73
2023/08/30 11:29:40;;;;;;;;;;;;;;;;;;6179165;28;20317;-71
2023/08/30 11:32:40;;;;;;;;;;;;;;;;;;6186332;28;19913;-73
2023/08/30 11:35:40;;;;;;;;;;;;;;;;;;6218261;28;19909;-75
2023/08/30 11:38:40;;;;;;;;;;;;;;;;;;6187669;28;19910;-73
2023/08/30 11:41:40;;;;;;;;;;;;;;;;;;6200767;28;19909;-73
2023/08/30 11:44:40;;;;;;;;;;;;;;;;;;6198192;28;19914;-73
2023/08/30 11:47:40;;;;;;;;;;;;;;;;;;6204176;28;19921;-73
2023/08/30 11:50:41;;;;;;;;;;;;;;;;;;6200101;28;19913;-73
2023/08/30 11:53:41;;;;;;;;;;;;;;;;;;6197823;28;19920;-73
2023/08/30 11:56:42;;;;;;;;;;;;;;;;;;6202194;28;19913;-73
2023/08/30 11:59:42;;;;;;;;;;;;;;;;;;6188854;28;20001;-73
2023/08/30 12:02:42;;;;;;;;;;;;;;;;;;6192518;28;19920;-73
2023/08/30 12:05:43;;;;;;;;;;;;;;;;;;6192931;28;20348;-73
2023/08/30 12:08:43;;;;;;;;;;;;;;;;;;6189402;28;19921;-74
2023/08/30 12:11:44;;;;;;;;;;;;;;;;;;6184257;28;19914;-74
2023/08/30 12:14:44;;;;;;;;;;;;;;;;;;6185801;28;20372;-74
2023/08/30 12:17:44;;;;;;;;;;;;;;;;;;6170377;28;19922;-74
2023/08/30 12:20:44;;;;;;;;;;;;;;;;;;6195236;28;20025;-73
2023/08/30 12:23:44;;;;;;;;;;;;;;;;;;6189694;28;19917;-74
2023/08/30 12:26:45;;;;;;;;;;;;;;;;;;6185499;28;19973;-75
2023/08/30 12:29:45;;;;;;;;;;;;;;;;;;6191465;28;19916;-73
2023/08/30 12:32:45;;;;;;;;;;;;;;;;;;6163327;28;19956;-75
2023/08/30 12:35:45;;;;;;;;;;;;;;;;;;6183891;28;19956;-75
2023/08/30 12:38:45;;;;;;;;;;;;;;;;;;6179730;28;20260;-75
2023/08/30 12:41:47;;;;;;;;;;;;;;;;;;6202955;28;19913;-75
2023/08/30 12:44:47;;;;;;;;;;;;;;;;;;6186466;28;19920;-74
2023/08/30 12:47:47;;;;;;;;;;;;;;;;;;6198226;28;20360;-74
2023/08/30 12:50:48;;;;;;;;;;;;;;;;;;6207629;28;20012;-75
2023/08/30 12:53:48;;;;;;;;;;;;;;;;;;6211891;28;20021;-75
2023/08/30 12:56:48;;;;;;;;;;;;;;;;;;6216700;28;20004;-74
2023/08/30 12:59:48;;;;;;;;;;;;;;;;;;6188646;28;19967;-76
2023/08/30 13:02:48;;;;;;;;;;;;;;;;;;6193593;28;19909;-75
2023/08/30 13:05:49;;;;;;;;;;;;;;;;;;6195486;28;20384;-75
2023/08/30 13:08:49;;;;;;;;;;;;;;;;;;6195879;28;19913;-74
2023/08/30 13:11:49;;;;;;;;;;;;;;;;;;6178104;28;19917;-75
2023/08/30 13:14:49;;;;;;;;;;;;;;;;;;6204465;28;20387;-74
2023/08/30 13:17:50;;;;;;;;;;;;;;;;;;6199825;28;19913;-75
2023/08/30 13:20:50;;;;;;;;;;;;;;;;;;6194917;28;19980;-75
2023/08/30 13:23:51;;;;;;;;;;;;;;;;;;6195508;28;19909;-74
2023/08/30 13:26:51;;;;;;;;;;;;;;;;;;6194852;28;19913;-75
2023/08/30 13:29:51;;;;;;;;;;;;;;;;;;6193670;28;19917;-74
2023/08/30 13:32:52;;;;;;;;;;;;;;;;;;6214935;28;19952;-80
2023/08/30 13:35:53;;;;;;;;;;;;;;;;;;6220095;28;19909;-75
2023/08/30 13:38:53;;;;;;;;;;;;;;;;;;6220053;28;19913;-75
2023/08/30 13:41:54;;;;;;;;;;;;;;;;;;6218978;28;19936;-74
2023/08/30 13:44:54;;;;;;;;;;;;;;;;;;6200749;28;20470;-74
2023/08/30 13:47:54;;;;;;;;;;;;;;;;;;6198839;28;20355;-75
2023/08/30 13:50:54;;;;;;;;;;;;;;;;;;6207148;28;19916;-75
2023/08/30 13:53:55;;;;;;;;;;;;;;;;;;6195278;28;19916;-74
2023/08/30 13:56:55;;;;;;;;;;;;;;;;;;6222956;28;20340;-73
2023/08/30 13:59:55;;;;;;;;;;;;;;;;;;6206435;28;19921;-74
2023/08/30 14:02:55;;;;;;;;;;;;;;;;;;6171080;28;19905;-73
2023/08/30 14:05:57;;;;;;;;;;;;;;;;;;6206692;28;20000;-75
2023/08/30 14:08:57;;;;;;;;;;;;;;;;;;6183984;28;19913;-74
2023/08/30 14:11:57;;;;;;;;;;;;;;;;;;6177316;28;20336;-75
2023/08/30 14:14:57;;;;;;;;;;;;;;;;;;6191903;28;19910;-75
2023/08/30 14:17:57;;;;;;;;;;;;;;;;;;6193748;28;19909;-75
2023/08/30 14:20:57;;;;;;;;;;;;;;;;;;6194431;28;19909;-76
2023/08/30 14:23:59;;;;;;;;;;;;;;;;;;6199254;28;19935;-75
2023/08/30 14:26:59;;;;;;;;;;;;;;;;;;6200908;28;20387;-75
2023/08/30 14:30:00;;;;;;;;;;;;;;;;;;6182581;28;19954;-74
2023/08/30 14:33:00;;;;;;;;;;;;;;;;;;6210143;28;19910;-74
2023/08/30 14:36:03;;;;;;;;;;;;;;;;;;6206942;28;19917;-75
2023/08/30 14:39:05;;;;;;;;;;;;;;;;;;6203719;28;19992;-73
2023/08/30 14:42:05;;;;;;;;;;;;;;;;;;6203063;28;19905;-74
2023/08/30 14:45:05;;;;;;;;;;;;;;;;;;6197267;28;19921;-74
2023/08/30 14:48:05;;;;;;;;;;;;;;;;;;6198224;28;20262;-75
2023/08/30 14:51:06;;;;;;;;;;;;;;;;;;6198487;28;19928;-75
2023/08/30 14:54:06;;;;;;;;;;;;;;;;;;6200829;28;19914;-74
2023/08/30 14:57:07;;;;;;;;;;;;;;;;;;6222216;28;19913;-75
2023/08/30 15:00:07;;;;;;;;;;;;;;;;;;6204945;28;19909;-75
2023/08/30 15:03:07;;;;;;;;;;;;;;;;;;6197604;28;20356;-74
2023/08/30 15:06:07;;;;;;;;;;;;;;;;;;6197998;28;19996;-75
2023/08/30 15:09:07;;;;;;;;;;;;;;;;;;6197909;28;19910;-76
2023/08/30 15:12:07;;;;;;;;;;;;;;;;;;6197984;28;19914;-76
2023/08/30 15:15:08;;;;;;;;;;;;;;;;;;6202750;28;19914;-76
2023/08/30 15:18:08;;;;;;;;;;;;;;;;;;6197690;28;20317;-75
2023/08/30 15:21:08;;;;;;;;;;;;;;;;;;6198284;28;19906;-76
2023/08/30 15:24:09;;;;;;;;;;;;;;;;;;6198751;28;19910;-75
2023/08/30 15:27:09;;;;;;;;;;;;;;;;;;6196404;28;19996;-75
2023/08/30 15:30:10;;;;;;;;;;;;;;;;;;6194353;28;19985;-76
2023/08/30 15:33:10;;;;;;;;;;;;;;;;;;6198136;28;20352;-76
2023/08/30 15:36:10;;;;;;;;;;;;;;;;;;6198034;28;19939;-75
2023/08/30 15:39:10;;;;;;;;;;;;;;;;;;6179820;28;20314;-75
2023/08/30 15:42:10;;;;;;;;;;;;;;;;;;6197751;28;19906;-75
2023/08/30 15:45:11;;;;;;;;;;;;;;;;;;6195072;28;19910;-75
2023/08/30 15:48:11;;;;;;;;;;;;;;;;;;6197832;28;19918;-75
2023/08/30 15:51:11;;;;;;;;;;;;;;;;;;6197378;28;19960;-75
2023/08/30 15:54:11;;;;;;;;;;;;;;;;;;6200032;28;19960;-74
2023/08/30 15:57:11;;;;;;;;;;;;;;;;;;6189015;28;20041;-75
2023/08/30 16:00:12;;;;;;;;;;;;;;;;;;6177745;28;19960;-74
2023/08/30 16:03:12;;;;;;;;;;;;;;;;;;6199238;28;20476;-76
2023/08/30 16:06:12;;;;;;;;;;;;;;;;;;6206172;28;20330;-77
2023/08/30 16:09:12;;;;;;;;;;;;;;;;;;6199313;28;20245;-76
2023/08/30 16:12:12;;;;;;;;;;;;;;;;;;6197746;28;20034;-76
2023/08/30 16:15:12;;;;;;;;;;;;;;;;;;6195163;28;20000;-74
2023/08/30 16:18:13;;;;;;;;;;;;;;;;;;6197709;28;20332;-75
2023/08/30 16:21:13;;;;;;;;;;;;;;;;;;6203454;28;20393;-77
2023/08/30 16:24:13;;;;;;;;;;;;;;;;;;6188898;28;20465;-76
2023/08/30 16:27:13;;;;;;;;;;;;;;;;;;6200560;28;19918;-76
2023/08/30 16:30:13;;;;;;;;;;;;;;;;;;6198015;28;19913;-76
2023/08/30 16:33:17;;;;;;;;;;;;;;;;;;6199923;28;19913;-75
2023/08/30 16:36:17;;;;;;;;;;;;;;;;;;6182103;28;19910;-76
2023/08/30 16:39:18;;;;;;;;;;;;;;;;;;6214252;28;19971;-75
2023/08/30 16:42:18;;;;;;;;;;;;;;;;;;6205662;28;19912;-75
2023/08/30 16:45:19;;;;;;;;;;;;;;;;;;6181561;28;20297;-75
2023/08/30 16:48:21;;;;;;;;;;;;;;;;;;6173372;28;19949;-75
2023/08/30 16:51:21;;;;;;;;;;;;;;;;;;6176026;28;19993;-75
2023/08/30 16:54:21;;;;;;;;;;;;;;;;;;6199144;28;19906;-75
2023/08/30 16:57:25;;;;;;;;;;;;;;;;;;6207768;28;20378;-75
2023/08/30 17:00:25;;;;;;;;;;;;;;;;;;6197028;28;20257;-75
2023/08/30 17:03:26;;;;;;;;;;;;;;;;;;6201509;28;19916;-75
2023/08/30 17:06:26;;;;;;;;;;;;;;;;;;6204802;28;19906;-75
2023/08/30 17:09:26;;;;;;;;;;;;;;;;;;6198908;28;19976;-74
2023/08/30 17:12:28;;;;;;;;;;;;;;;;;;6200175;28;19909;-75
2023/08/30 17:15:28;;;;;;;;;;;;;;;;;;6200698;28;19976;-76
2023/08/30 17:18:29;;;;;;;;;;;;;;;;;;6200534;28;20353;-74
2023/08/30 17:21:29;;;;;;;;;;;;;;;;;;6198153;28;20296;-75
2023/08/30 17:24:31;;;;;;;;;;;;;;;;;;6198722;28;19968;-74
2023/08/30 17:27:31;;;;;;;;;;;;;;;;;;6220411;28;20279;-76
2023/08/30 17:30:32;;;;;;;;;;;;;;;;;;6203491;28;19953;-76
2023/08/30 17:33:33;;;;;;;;;;;;;;;;;;6198405;28;20000;-75
2023/08/30 17:36:33;;;;;;;;;;;;;;;;;;6198580;28;20399;-76
2023/08/30 17:39:33;;;;;;;;;;;;;;;;;;6198108;28;19992;-75
2023/08/30 17:42:33;;;;;;;;;;;;;;;;;;6198433;28;20016;-75
2023/08/30 17:45:34;;;;;;;;;;;;;;;;;;6197606;28;20008;-74
2023/08/30 17:48:34;;;;;;;;;;;;;;;;;;6208230;28;19914;-74
2023/08/30 17:51:34;;;;;;;;;;;;;;;;;;6197632;28;19964;-74
2023/08/30 17:54:35;;;;;;;;;;;;;;;;;;6197386;28;19960;-75
2023/08/30 17:57:35;;;;;;;;;;;;;;;;;;6197379;28;20059;-75
2023/08/30 18:00:35;;;;;;;;;;;;;;;;;;6186491;28;20392;-75
2023/08/30 18:03:35;;;;;;;;;;;;;;;;;;6183917;28;19920;-75
2023/08/30 18:06:35;;;;;;;;;;;;;;;;;;6198215;28;20088;-74
2023/08/30 18:09:37;;;;;;;;;;;;;;;;;;6188451;28;19956;-74
2023/08/30 18:12:37;;;;;;;;;;;;;;;;;;6217924;28;20021;-74
2023/08/30 18:15:37;;;;;;;;;;;;;;;;;;6194999;28;20276;-75
2023/08/30 18:18:37;;;;;;;;;;;;;;;;;;6186885;28;19905;-75
2023/08/30 18:21:39;;;;;;;;;;;;;;;;;;6220870;28;19913;-75
2023/08/30 18:24:41;;;;;;;;;;;;;;;;;;6228024;28;19906;-74
2023/08/30 18:27:41;;;;;;;;;;;;;;;;;;6179504;28;19910;-75
2023/08/30 18:30:42;;;;;;;;;;;;;;;;;;6188297;28;19905;-75
2023/08/30 18:33:45;;;;;;;;;;;;;;;;;;6202406;28;19905;-75
2023/08/30 18:36:45;;;;;;;;;;;;;;;;;;6186007;28;19995;-75
2023/08/30 18:39:45;;;;;;;;;;;;;;;;;;6202621;28;20282;-75
2023/08/30 18:42:45;;;;;;;;;;;;;;;;;;6202869;28;19905;-75
2023/08/30 18:45:46;;;;;;;;;;;;;;;;;;6188232;28;20364;-70
2023/08/30 18:48:46;;;;;;;;;;;;;;;;;;6183262;28;20312;-71
2023/08/30 18:51:46;;;;;;;;;;;;;;;;;;6202167;28;19906;-71
2023/08/30 18:54:46;;;;;;;;;;;;;;;;;;6195189;28;19913;-71
2023/08/30 18:57:47;;;;;;;;;;;;;;;;;;6207646;28;19909;-71
2023/08/30 19:00:48;;;;;;;;;;;;;;;;;;6199388;28;19992;-72
2023/08/30 19:03:50;;;;;;;;;;;;;;;;;;6201543;28;20044;-71
2023/08/30 19:06:50;;;;;;;;;;;;;;;;;;6205977;28;19909;-71
2023/08/30 19:09:50;;;;;;;;;;;;;;;;;;6188170;28;19967;-69
2023/08/30 19:12:50;;;;;;;;;;;;;;;;;;6225257;28;20440;-69
2023/08/30 19:15:50;;;;;;;;;;;;;;;;;;6193325;28;19912;-71
2023/08/30 19:18:50;;;;;;;;;;;;;;;;;;6200624;28;20468;-70
2023/08/30 19:21:51;;;;;;;;;;;;;;;;;;6201586;28;20009;-71
2023/08/30 19:24:51;;;;;;;;;;;;;;;;;;6201407;28;20247;-70
2023/08/30 19:27:51;;;;;;;;;;;;;;;;;;6201785;28;19949;-70
2023/08/30 19:30:52;;;;;;;;;;;;;;;;;;6199459;28;19952;-70
2023/08/30 19:33:52;;;;;;;;;;;;;;;;;;6200939;28;20328;-70
2023/08/30 19:36:52;;;;;;;;;;;;;;;;;;6192332;28;19924;-71
2023/08/30 19:39:53;;;;;;;;;;;;;;;;;;6192667;28;19913;-71
2023/08/30 19:42:53;;;;;;;;;;;;;;;;;;6193936;28;20296;-72
2023/08/30 19:45:53;;;;;;;;;;;;;;;;;;6192793;28;19918;-71
2023/08/30 19:48:54;;;;;;;;;;;;;;;;;;6190089;28;19921;-71
2023/08/30 19:51:54;;;;;;;;;;;;;;;;;;6196374;28;19910;-71
2023/08/30 19:54:54;;;;;;;;;;;;;;;;;;6193624;28;19966;-76
2023/08/30 19:57:54;;;;;;;;;;;;;;;;;;6186092;28;19921;-74
2023/08/30 20:00:54;;;;;;;;;;;;;;;;;;6199734;28;19906;-75
2023/08/30 20:03:55;;;;;;;;;;;;;;;;;;6200511;28;19917;-76
2023/08/30 20:06:56;;;;;;;;;;;;;;;;;;6200813;28;19968;-76
2023/08/30 20:09:57;;;;;;;;;;;;;;;;;;6184435;28;19922;-75
2023/08/30 20:12:57;;;;;;;;;;;;;;;;;;6197479;28;19909;-73
2023/08/30 20:15:59;;;;;;;;;;;;;;;;;;6200794;28;19913;-76
2023/08/30 20:18:59;;;;;;;;;;;;;;;;;;6208333;28;19910;-75
2023/08/30 20:22:00;;;;;;;;;;;;;;;;;;6214776;28;19905;-76
2023/08/30 20:25:00;;;;;;;;;;;;;;;;;;6210816;28;19910;-75
2023/08/30 20:28:03;;;;;;;;;;;;;;;;;;6202705;28;19929;-76
2023/08/30 20:31:03;;;;;;;;;;;;;;;;;;6214604;28;19913;-75